sensor_id;sensor_type;location;lat;lon;timestamp;P1;durP1;ratioP1;P2;durP2;ratioP2
15693;SDS011;7947;48.834;9.132;2024-01-07T00:01:39;12.23;;;6.30;;
15693;SDS011;7947;48.834;9.132;2024-01-07T00:04:43;9.20;;;6.13;;
15693;SDS011;7947;48.834;9.132;2024-01-07T00:07:46;7.87;;;5.83;;
15693;SDS011;7947;48.834;9.132;2024-01-07T00:10:52;10.67;;;6.73;;
15693;SDS011;7947;48.834;9.132;2024-01-07T00:13:55;10.67;;;6.83;;
15693;SDS011;7947;48.834;9.132;2024-01-07T00:16:58;10.70;;;6.70;;
15693;SDS011;7947;48.834;9.132;2024-01-07T00:20:02;11.83;;;6.83;;
15693;SDS011;7947;48.834;9.132;2024-01-07T00:23:05;10.07;;;7.07;;
15693;SDS011;7947;48.834;9.132;2024-01-07T00:26:09;12.03;;;6.83;;
15693;SDS011;7947;48.834;9.132;2024-01-07T00:29:12;11.53;;;6.50;;
15693;SDS011;7947;48.834;9.132;2024-01-07T00:32:15;9.57;;;6.77;;
15693;SDS011;7947;48.834;9.132;2024-01-07T00:35:19;11.30;;;6.73;;
15693;SDS011;7947;48.834;9.132;2024-01-07T00:38:22;9.47;;;6.57;;
15693;SDS011;7947;48.834;9.132;2024-01-07T00:41:24;13.27;;;7.33;;
15693;SDS011;7947;48.834;9.132;2024-01-07T00:44:28;12.13;;;7.23;;
15693;SDS011;7947;48.834;9.132;2024-01-07T00:47:30;10.50;;;7.17;;
15693;SDS011;7947;48.834;9.132;2024-01-07T00:50:34;13.93;;;7.13;;
15693;SDS011;7947;48.834;9.132;2024-01-07T00:53:37;10.87;;;6.73;;
15693;SDS011;7947;48.834;9.132;2024-01-07T00:56:40;11.83;;;7.43;;
15693;SDS011;7947;48.834;9.132;2024-01-07T00:59:43;10.50;;;6.87;;
15693;SDS011;7947;48.834;9.132;2024-01-07T01:02:46;13.50;;;8.23;;
15693;SDS011;7947;48.834;9.132;2024-01-07T01:05:50;13.47;;;7.70;;
15693;SDS011;7947;48.834;9.132;2024-01-07T01:08:53;13.27;;;8.20;;
15693;SDS011;7947;48.834;9.132;2024-01-07T01:11:56;15.47;;;8.20;;
15693;SDS011;7947;48.834;9.132;2024-01-07T01:14:59;17.43;;;9.17;;
15693;SDS011;7947;48.834;9.132;2024-01-07T01:18:01;16.20;;;9.23;;
15693;SDS011;7947;48.834;9.132;2024-01-07T01:21:06;18.13;;;10.13;;
15693;SDS011;7947;48.834;9.132;2024-01-07T01:24:09;16.90;;;9.70;;
15693;SDS011;7947;48.834;9.132;2024-01-07T01:27:12;22.97;;;10.90;;
15693;SDS011;7947;48.834;9.132;2024-01-07T01:30:16;15.63;;;9.40;;
15693;SDS011;7947;48.834;9.132;2024-01-07T01:33:19;18.87;;;9.53;;
15693;SDS011;7947;48.834;9.132;2024-01-07T01:36:23;19.73;;;10.77;;
15693;SDS011;7947;48.834;9.132;2024-01-07T01:39:28;19.57;;;10.47;;
15693;SDS011;7947;48.834;9.132;2024-01-07T01:42:31;16.23;;;9.97;;
15693;SDS011;7947;48.834;9.132;2024-01-07T01:45:34;17.70;;;9.90;;
15693;SDS011;7947;48.834;9.132;2024-01-07T01:48:36;19.87;;;10.10;;
15693;SDS011;7947;48.834;9.132;2024-01-07T01:51:41;18.77;;;10.27;;
15693;SDS011;7947;48.834;9.132;2024-01-07T01:54:44;18.60;;;10.23;;
15693;SDS011;7947;48.834;9.132;2024-01-07T01:57:47;19.07;;;10.93;;
15693;SDS011;7947;48.834;9.132;2024-01-07T02:00:51;18.43;;;9.90;;
15693;SDS011;7947;48.834;9.132;2024-01-07T02:03:55;18.67;;;10.10;;
15693;SDS011;7947;48.834;9.132;2024-01-07T02:06:59;17.70;;;9.63;;
15693;SDS011;7947;48.834;9.132;2024-01-07T02:10:02;19.50;;;9.93;;
15693;SDS011;7947;48.834;9.132;2024-01-07T02:13:05;19.40;;;10.10;;
15693;SDS011;7947;48.834;9.132;2024-01-07T02:16:08;16.20;;;9.17;;
15693;SDS011;7947;48.834;9.132;2024-01-07T02:19:11;17.90;;;9.30;;
15693;SDS011;7947;48.834;9.132;2024-01-07T02:22:16;16.03;;;8.43;;
15693;SDS011;7947;48.834;9.132;2024-01-07T02:25:21;15.40;;;8.73;;
15693;SDS011;7947;48.834;9.132;2024-01-07T02:28:24;18.27;;;9.47;;
15693;SDS011;7947;48.834;9.132;2024-01-07T02:31:27;11.57;;;7.90;;
15693;SDS011;7947;48.834;9.132;2024-01-07T02:34:30;14.00;;;8.97;;
15693;SDS011;7947;48.834;9.132;2024-01-07T02:37:33;14.50;;;8.80;;
15693;SDS011;7947;48.834;9.132;2024-01-07T02:40:38;12.30;;;7.20;;
15693;SDS011;7947;48.834;9.132;2024-01-07T02:43:40;13.17;;;7.43;;
15693;SDS011;7947;48.834;9.132;2024-01-07T02:46:43;11.90;;;7.60;;
15693;SDS011;7947;48.834;9.132;2024-01-07T02:49:47;12.60;;;7.13;;
15693;SDS011;7947;48.834;9.132;2024-01-07T02:52:50;14.50;;;7.33;;
15693;SDS011;7947;48.834;9.132;2024-01-07T02:55:54;12.17;;;7.37;;
15693;SDS011;7947;48.834;9.132;2024-01-07T02:58:57;14.30;;;7.27;;
15693;SDS011;7947;48.834;9.132;2024-01-07T03:01:59;10.80;;;7.10;;
15693;SDS011;7947;48.834;9.132;2024-01-07T03:05:02;11.77;;;7.00;;
15693;SDS011;7947;48.834;9.132;2024-01-07T03:08:06;13.27;;;7.77;;
15693;SDS011;7947;48.834;9.132;2024-01-07T03:11:10;14.07;;;7.63;;
15693;SDS011;7947;48.834;9.132;2024-01-07T03:14:13;12.00;;;7.27;;
15693;SDS011;7947;48.834;9.132;2024-01-07T03:17:18;11.07;;;7.07;;
15693;SDS011;7947;48.834;9.132;2024-01-07T03:20:21;14.57;;;8.13;;
15693;SDS011;7947;48.834;9.132;2024-01-07T03:23:24;10.90;;;7.20;;
15693;SDS011;7947;48.834;9.132;2024-01-07T03:26:29;12.53;;;7.00;;
15693;SDS011;7947;48.834;9.132;2024-01-07T03:29:33;9.00;;;6.67;;
15693;SDS011;7947;48.834;9.132;2024-01-07T03:32:37;13.03;;;7.47;;
15693;SDS011;7947;48.834;9.132;2024-01-07T03:35:40;12.63;;;7.20;;
15693;SDS011;7947;48.834;9.132;2024-01-07T03:38:43;15.10;;;7.87;;
15693;SDS011;7947;48.834;9.132;2024-01-07T03:41:47;12.70;;;7.53;;
15693;SDS011;7947;48.834;9.132;2024-01-07T03:44:50;13.97;;;8.60;;
15693;SDS011;7947;48.834;9.132;2024-01-07T03:47:53;11.23;;;7.17;;
15693;SDS011;7947;48.834;9.132;2024-01-07T03:50:55;12.90;;;7.30;;
15693;SDS011;7947;48.834;9.132;2024-01-07T03:53:58;14.47;;;8.17;;
15693;SDS011;7947;48.834;9.132;2024-01-07T03:57:02;11.77;;;7.50;;
15693;SDS011;7947;48.834;9.132;2024-01-07T04:00:06;12.90;;;7.10;;
15693;SDS011;7947;48.834;9.132;2024-01-07T04:03:11;12.83;;;7.50;;
15693;SDS011;7947;48.834;9.132;2024-01-07T04:06:13;11.73;;;6.73;;
15693;SDS011;7947;48.834;9.132;2024-01-07T04:09:16;10.57;;;7.10;;
15693;SDS011;7947;48.834;9.132;2024-01-07T04:12:20;11.53;;;7.10;;
15693;SDS011;7947;48.834;9.132;2024-01-07T04:15:23;13.30;;;7.00;;
15693;SDS011;7947;48.834;9.132;2024-01-07T04:18:26;11.67;;;7.23;;
15693;SDS011;7947;48.834;9.132;2024-01-07T04:21:30;11.27;;;6.40;;
15693;SDS011;7947;48.834;9.132;2024-01-07T04:24:33;14.77;;;7.10;;
15693;SDS011;7947;48.834;9.132;2024-01-07T04:27:37;12.53;;;6.90;;
15693;SDS011;7947;48.834;9.132;2024-01-07T04:30:40;13.50;;;6.67;;
15693;SDS011;7947;48.834;9.132;2024-01-07T04:33:43;11.00;;;7.00;;
15693;SDS011;7947;48.834;9.132;2024-01-07T04:36:46;12.03;;;7.43;;
15693;SDS011;7947;48.834;9.132;2024-01-07T04:39:49;11.83;;;7.13;;
15693;SDS011;7947;48.834;9.132;2024-01-07T04:42:54;11.97;;;6.63;;
15693;SDS011;7947;48.834;9.132;2024-01-07T04:45:56;10.37;;;6.63;;
15693;SDS011;7947;48.834;9.132;2024-01-07T04:48:59;9.63;;;6.63;;
15693;SDS011;7947;48.834;9.132;2024-01-07T04:52:02;13.07;;;6.93;;
15693;SDS011;7947;48.834;9.132;2024-01-07T04:55:06;10.37;;;6.03;;
15693;SDS011;7947;48.834;9.132;2024-01-07T04:58:12;11.03;;;6.20;;
15693;SDS011;7947;48.834;9.132;2024-01-07T05:01:15;10.97;;;6.13;;
15693;SDS011;7947;48.834;9.132;2024-01-07T05:04:18;11.20;;;7.00;;
15693;SDS011;7947;48.834;9.132;2024-01-07T05:07:21;12.43;;;6.40;;
15693;SDS011;7947;48.834;9.132;2024-01-07T05:10:24;11.33;;;6.03;;
15693;SDS011;7947;48.834;9.132;2024-01-07T05:13:28;15.80;;;7.13;;
15693;SDS011;7947;48.834;9.132;2024-01-07T05:16:31;11.03;;;6.73;;
15693;SDS011;7947;48.834;9.132;2024-01-07T05:19:33;12.30;;;7.03;;
15693;SDS011;7947;48.834;9.132;2024-01-07T05:22:36;11.73;;;6.87;;
15693;SDS011;7947;48.834;9.132;2024-01-07T05:25:39;11.90;;;6.17;;
15693;SDS011;7947;48.834;9.132;2024-01-07T05:28:43;10.67;;;5.87;;
15693;SDS011;7947;48.834;9.132;2024-01-07T05:31:46;9.10;;;5.90;;
15693;SDS011;7947;48.834;9.132;2024-01-07T05:34:49;10.57;;;6.20;;
15693;SDS011;7947;48.834;9.132;2024-01-07T05:37:52;10.17;;;5.67;;
15693;SDS011;7947;48.834;9.132;2024-01-07T05:40:55;8.70;;;5.47;;
15693;SDS011;7947;48.834;9.132;2024-01-07T05:43:59;8.77;;;5.63;;
15693;SDS011;7947;48.834;9.132;2024-01-07T05:47:02;11.23;;;6.70;;
15693;SDS011;7947;48.834;9.132;2024-01-07T05:50:06;10.07;;;6.03;;
15693;SDS011;7947;48.834;9.132;2024-01-07T05:53:09;8.43;;;4.90;;
15693;SDS011;7947;48.834;9.132;2024-01-07T05:56:12;9.03;;;5.50;;
15693;SDS011;7947;48.834;9.132;2024-01-07T05:59:16;9.07;;;4.90;;
15693;SDS011;7947;48.834;9.132;2024-01-07T06:02:19;10.13;;;5.97;;
15693;SDS011;7947;48.834;9.132;2024-01-07T06:05:24;8.70;;;5.90;;
15693;SDS011;7947;48.834;9.132;2024-01-07T06:08:27;8.13;;;4.87;;
15693;SDS011;7947;48.834;9.132;2024-01-07T06:11:29;10.90;;;6.80;;
15693;SDS011;7947;48.834;9.132;2024-01-07T06:14:34;10.17;;;5.70;;
15693;SDS011;7947;48.834;9.132;2024-01-07T06:17:37;9.10;;;5.33;;
15693;SDS011;7947;48.834;9.132;2024-01-07T06:20:39;12.20;;;5.53;;
15693;SDS011;7947;48.834;9.132;2024-01-07T06:23:42;8.23;;;5.77;;
15693;SDS011;7947;48.834;9.132;2024-01-07T06:26:46;10.00;;;5.63;;
15693;SDS011;7947;48.834;9.132;2024-01-07T06:29:50;8.37;;;5.63;;
15693;SDS011;7947;48.834;9.132;2024-01-07T06:32:53;7.70;;;4.73;;
15693;SDS011;7947;48.834;9.132;2024-01-07T06:35:56;8.97;;;6.13;;
15693;SDS011;7947;48.834;9.132;2024-01-07T06:38:58;8.73;;;5.53;;
15693;SDS011;7947;48.834;9.132;2024-01-07T06:42:01;6.97;;;4.87;;
15693;SDS011;7947;48.834;9.132;2024-01-07T06:45:06;9.23;;;5.47;;
15693;SDS011;7947;48.834;9.132;2024-01-07T06:48:09;7.37;;;5.17;;
15693;SDS011;7947;48.834;9.132;2024-01-07T06:51:13;7.70;;;4.83;;
15693;SDS011;7947;48.834;9.132;2024-01-07T06:54:16;8.30;;;5.63;;
15693;SDS011;7947;48.834;9.132;2024-01-07T06:57:19;9.63;;;5.57;;
15693;SDS011;7947;48.834;9.132;2024-01-07T07:00:23;8.20;;;4.93;;
15693;SDS011;7947;48.834;9.132;2024-01-07T07:03:26;9.00;;;5.07;;
15693;SDS011;7947;48.834;9.132;2024-01-07T07:06:29;7.93;;;4.87;;
15693;SDS011;7947;48.834;9.132;2024-01-07T07:09:32;5.20;;;4.53;;
15693;SDS011;7947;48.834;9.132;2024-01-07T07:12:35;7.57;;;4.87;;
15693;SDS011;7947;48.834;9.132;2024-01-07T07:15:40;6.70;;;4.83;;
15693;SDS011;7947;48.834;9.132;2024-01-07T07:18:43;6.33;;;4.60;;
15693;SDS011;7947;48.834;9.132;2024-01-07T07:21:46;6.43;;;4.37;;
15693;SDS011;7947;48.834;9.132;2024-01-07T07:24:49;5.83;;;4.03;;
15693;SDS011;7947;48.834;9.132;2024-01-07T07:27:51;7.90;;;4.17;;
15693;SDS011;7947;48.834;9.132;2024-01-07T07:30:56;6.23;;;3.93;;
15693;SDS011;7947;48.834;9.132;2024-01-07T07:33:59;6.10;;;4.33;;
15693;SDS011;7947;48.834;9.132;2024-01-07T07:37:02;5.63;;;3.80;;
15693;SDS011;7947;48.834;9.132;2024-01-07T07:40:05;7.30;;;4.10;;
15693;SDS011;7947;48.834;9.132;2024-01-07T07:43:09;6.67;;;3.97;;
15693;SDS011;7947;48.834;9.132;2024-01-07T07:46:13;4.53;;;3.10;;
15693;SDS011;7947;48.834;9.132;2024-01-07T07:49:17;4.83;;;3.93;;
15693;SDS011;7947;48.834;9.132;2024-01-07T07:52:20;8.37;;;3.93;;
15693;SDS011;7947;48.834;9.132;2024-01-07T07:55:24;6.07;;;3.70;;
15693;SDS011;7947;48.834;9.132;2024-01-07T07:58:28;6.67;;;3.87;;
15693;SDS011;7947;48.834;9.132;2024-01-07T08:01:33;5.17;;;3.77;;
15693;SDS011;7947;48.834;9.132;2024-01-07T08:04:35;6.47;;;3.97;;
15693;SDS011;7947;48.834;9.132;2024-01-07T08:07:38;6.37;;;3.60;;
15693;SDS011;7947;48.834;9.132;2024-01-07T08:10:41;4.40;;;2.97;;
15693;SDS011;7947;48.834;9.132;2024-01-07T08:13:44;4.73;;;3.27;;
15693;SDS011;7947;48.834;9.132;2024-01-07T08:16:48;4.80;;;3.53;;
15693;SDS011;7947;48.834;9.132;2024-01-07T08:19:51;5.60;;;3.57;;
15693;SDS011;7947;48.834;9.132;2024-01-07T08:22:54;5.87;;;3.93;;
15693;SDS011;7947;48.834;9.132;2024-01-07T08:25:57;5.57;;;3.30;;
15693;SDS011;7947;48.834;9.132;2024-01-07T08:29:00;5.00;;;3.20;;
15693;SDS011;7947;48.834;9.132;2024-01-07T08:32:04;6.13;;;3.53;;
15693;SDS011;7947;48.834;9.132;2024-01-07T08:35:08;4.77;;;3.30;;
15693;SDS011;7947;48.834;9.132;2024-01-07T08:38:11;7.27;;;3.70;;
15693;SDS011;7947;48.834;9.132;2024-01-07T08:41:14;6.43;;;3.40;;
15693;SDS011;7947;48.834;9.132;2024-01-07T08:44:18;5.83;;;3.47;;
15693;SDS011;7947;48.834;9.132;2024-01-07T08:47:22;4.03;;;2.83;;
15693;SDS011;7947;48.834;9.132;2024-01-07T08:50:25;3.80;;;2.73;;
15693;SDS011;7947;48.834;9.132;2024-01-07T08:53:27;3.73;;;2.70;;
15693;SDS011;7947;48.834;9.132;2024-01-07T08:56:30;3.87;;;3.30;;
15693;SDS011;7947;48.834;9.132;2024-01-07T08:59:33;4.57;;;2.70;;
15693;SDS011;7947;48.834;9.132;2024-01-07T09:02:38;5.13;;;2.93;;
15693;SDS011;7947;48.834;9.132;2024-01-07T09:05:44;4.27;;;3.00;;
15693;SDS011;7947;48.834;9.132;2024-01-07T09:08:47;3.83;;;2.43;;
15693;SDS011;7947;48.834;9.132;2024-01-07T09:11:50;5.27;;;2.97;;
15693;SDS011;7947;48.834;9.132;2024-01-07T09:14:57;5.63;;;3.33;;
15693;SDS011;7947;48.834;9.132;2024-01-07T09:18:01;6.10;;;3.60;;
15693;SDS011;7947;48.834;9.132;2024-01-07T09:21:04;6.40;;;3.53;;
15693;SDS011;7947;48.834;9.132;2024-01-07T09:24:08;6.77;;;3.40;;
15693;SDS011;7947;48.834;9.132;2024-01-07T09:27:10;6.43;;;3.80;;
15693;SDS011;7947;48.834;9.132;2024-01-07T09:30:13;6.57;;;3.87;;
15693;SDS011;7947;48.834;9.132;2024-01-07T09:33:18;6.73;;;3.53;;
15693;SDS011;7947;48.834;9.132;2024-01-07T09:36:21;5.40;;;3.80;;
15693;SDS011;7947;48.834;9.132;2024-01-07T09:39:31;6.93;;;3.67;;
15693;SDS011;7947;48.834;9.132;2024-01-07T09:42:34;7.00;;;3.90;;
15693;SDS011;7947;48.834;9.132;2024-01-07T09:45:38;5.77;;;3.23;;
15693;SDS011;7947;48.834;9.132;2024-01-07T09:48:42;5.10;;;3.27;;
15693;SDS011;7947;48.834;9.132;2024-01-07T09:51:45;4.67;;;3.07;;
15693;SDS011;7947;48.834;9.132;2024-01-07T09:54:50;6.83;;;3.67;;
15693;SDS011;7947;48.834;9.132;2024-01-07T09:57:54;4.70;;;3.20;;
15693;SDS011;7947;48.834;9.132;2024-01-07T10:00:57;4.87;;;3.10;;
15693;SDS011;7947;48.834;9.132;2024-01-07T10:04:01;5.63;;;3.37;;
15693;SDS011;7947;48.834;9.132;2024-01-07T10:07:04;4.57;;;2.67;;
15693;SDS011;7947;48.834;9.132;2024-01-07T10:10:11;6.63;;;3.30;;
15693;SDS011;7947;48.834;9.132;2024-01-07T10:13:19;4.27;;;3.27;;
15693;SDS011;7947;48.834;9.132;2024-01-07T10:16:23;5.60;;;3.40;;
15693;SDS011;7947;48.834;9.132;2024-01-07T10:19:27;6.70;;;3.40;;
15693;SDS011;7947;48.834;9.132;2024-01-07T10:22:30;5.93;;;3.20;;
15693;SDS011;7947;48.834;9.132;2024-01-07T10:25:34;4.40;;;2.87;;
15693;SDS011;7947;48.834;9.132;2024-01-07T10:28:38;4.37;;;2.57;;
15693;SDS011;7947;48.834;9.132;2024-01-07T10:31:42;3.10;;;2.47;;
15693;SDS011;7947;48.834;9.132;2024-01-07T10:34:46;3.77;;;2.80;;
15693;SDS011;7947;48.834;9.132;2024-01-07T10:37:49;4.60;;;3.00;;
15693;SDS011;7947;48.834;9.132;2024-01-07T10:40:52;3.37;;;2.80;;
15693;SDS011;7947;48.834;9.132;2024-01-07T10:43:58;3.93;;;2.60;;
15693;SDS011;7947;48.834;9.132;2024-01-07T10:47:01;4.80;;;3.10;;
15693;SDS011;7947;48.834;9.132;2024-01-07T10:50:10;4.37;;;3.07;;
15693;SDS011;7947;48.834;9.132;2024-01-07T10:53:17;3.93;;;2.67;;
15693;SDS011;7947;48.834;9.132;2024-01-07T10:56:23;3.27;;;2.50;;
15693;SDS011;7947;48.834;9.132;2024-01-07T10:59:26;4.37;;;2.77;;
15693;SDS011;7947;48.834;9.132;2024-01-07T11:02:30;4.33;;;2.70;;
15693;SDS011;7947;48.834;9.132;2024-01-07T11:05:37;4.27;;;2.70;;
15693;SDS011;7947;48.834;9.132;2024-01-07T11:08:46;3.60;;;2.73;;
15693;SDS011;7947;48.834;9.132;2024-01-07T11:11:57;5.17;;;3.37;;
15693;SDS011;7947;48.834;9.132;2024-01-07T11:15:01;3.83;;;3.07;;
15693;SDS011;7947;48.834;9.132;2024-01-07T11:18:05;3.43;;;2.80;;
15693;SDS011;7947;48.834;9.132;2024-01-07T11:21:10;5.27;;;2.97;;
15693;SDS011;7947;48.834;9.132;2024-01-07T11:27:40;4.37;;;2.93;;
15693;SDS011;7947;48.834;9.132;2024-01-07T11:30:45;5.10;;;3.27;;
15693;SDS011;7947;48.834;9.132;2024-01-07T11:33:50;5.30;;;2.87;;
15693;SDS011;7947;48.834;9.132;2024-01-07T11:36:54;4.83;;;3.37;;
15693;SDS011;7947;48.834;9.132;2024-01-07T11:39:57;4.40;;;2.53;;
15693;SDS011;7947;48.834;9.132;2024-01-07T11:43:00;4.73;;;2.73;;
15693;SDS011;7947;48.834;9.132;2024-01-07T11:46:05;4.47;;;2.90;;
15693;SDS011;7947;48.834;9.132;2024-01-07T11:49:08;4.00;;;2.80;;
15693;SDS011;7947;48.834;9.132;2024-01-07T11:52:13;3.50;;;2.40;;
15693;SDS011;7947;48.834;9.132;2024-01-07T11:55:16;3.93;;;2.57;;
15693;SDS011;7947;48.834;9.132;2024-01-07T11:58:19;3.63;;;2.70;;
15693;SDS011;7947;48.834;9.132;2024-01-07T12:01:22;5.37;;;3.13;;
15693;SDS011;7947;48.834;9.132;2024-01-07T12:04:27;4.97;;;2.90;;
15693;SDS011;7947;48.834;9.132;2024-01-07T12:07:31;5.83;;;3.20;;
15693;SDS011;7947;48.834;9.132;2024-01-07T12:10:34;4.73;;;3.07;;
15693;SDS011;7947;48.834;9.132;2024-01-07T12:13:37;6.13;;;3.33;;
15693;SDS011;7947;48.834;9.132;2024-01-07T12:16:41;5.73;;;3.73;;
15693;SDS011;7947;48.834;9.132;2024-01-07T12:19:44;5.00;;;3.70;;
15693;SDS011;7947;48.834;9.132;2024-01-07T12:22:48;5.73;;;4.00;;
15693;SDS011;7947;48.834;9.132;2024-01-07T12:25:51;5.77;;;3.50;;
15693;SDS011;7947;48.834;9.132;2024-01-07T12:28:54;8.00;;;3.80;;
15693;SDS011;7947;48.834;9.132;2024-01-07T12:32:01;4.77;;;3.43;;
15693;SDS011;7947;48.834;9.132;2024-01-07T12:35:05;7.37;;;4.20;;
15693;SDS011;7947;48.834;9.132;2024-01-07T12:38:11;5.37;;;3.43;;
15693;SDS011;7947;48.834;9.132;2024-01-07T12:41:14;5.50;;;3.83;;
15693;SDS011;7947;48.834;9.132;2024-01-07T12:44:18;5.53;;;4.00;;
15693;SDS011;7947;48.834;9.132;2024-01-07T12:47:20;6.17;;;4.03;;
15693;SDS011;7947;48.834;9.132;2024-01-07T12:50:25;5.80;;;3.90;;
15693;SDS011;7947;48.834;9.132;2024-01-07T12:53:30;4.97;;;3.50;;
15693;SDS011;7947;48.834;9.132;2024-01-07T12:56:33;8.00;;;3.90;;
15693;SDS011;7947;48.834;9.132;2024-01-07T12:59:37;6.17;;;3.97;;
15693;SDS011;7947;48.834;9.132;2024-01-07T13:02:40;6.07;;;4.37;;
15693;SDS011;7947;48.834;9.132;2024-01-07T13:05:43;5.63;;;4.13;;
15693;SDS011;7947;48.834;9.132;2024-01-07T13:08:48;8.60;;;4.60;;
15693;SDS011;7947;48.834;9.132;2024-01-07T13:11:51;6.50;;;3.93;;
15693;SDS011;7947;48.834;9.132;2024-01-07T13:14:54;7.60;;;4.40;;
15693;SDS011;7947;48.834;9.132;2024-01-07T13:17:57;7.47;;;5.10;;
15693;SDS011;7947;48.834;9.132;2024-01-07T13:21:00;6.53;;;4.40;;
15693;SDS011;7947;48.834;9.132;2024-01-07T13:24:05;6.80;;;3.73;;
15693;SDS011;7947;48.834;9.132;2024-01-07T13:27:08;5.50;;;4.00;;
15693;SDS011;7947;48.834;9.132;2024-01-07T13:30:11;10.30;;;4.50;;
15693;SDS011;7947;48.834;9.132;2024-01-07T13:33:14;6.80;;;4.07;;
15693;SDS011;7947;48.834;9.132;2024-01-07T13:36:19;8.00;;;4.10;;
15693;SDS011;7947;48.834;9.132;2024-01-07T13:39:23;6.50;;;4.17;;
15693;SDS011;7947;48.834;9.132;2024-01-07T13:42:26;8.40;;;4.53;;
15693;SDS011;7947;48.834;9.132;2024-01-07T13:45:29;6.50;;;4.43;;
15693;SDS011;7947;48.834;9.132;2024-01-07T13:48:31;6.77;;;4.37;;
15693;SDS011;7947;48.834;9.132;2024-01-07T13:51:36;7.23;;;4.60;;
15693;SDS011;7947;48.834;9.132;2024-01-07T13:54:40;7.70;;;4.30;;
15693;SDS011;7947;48.834;9.132;2024-01-07T13:57:43;9.33;;;5.37;;
15693;SDS011;7947;48.834;9.132;2024-01-07T14:00:46;6.50;;;4.43;;
15693;SDS011;7947;48.834;9.132;2024-01-07T14:03:49;6.23;;;4.70;;
15693;SDS011;7947;48.834;9.132;2024-01-07T14:06:53;8.07;;;5.10;;
15693;SDS011;7947;48.834;9.132;2024-01-07T14:09:58;6.13;;;4.63;;
15693;SDS011;7947;48.834;9.132;2024-01-07T14:13:03;8.03;;;5.17;;
15693;SDS011;7947;48.834;9.132;2024-01-07T14:16:06;8.67;;;5.00;;
15693;SDS011;7947;48.834;9.132;2024-01-07T14:19:10;8.10;;;5.00;;
15693;SDS011;7947;48.834;9.132;2024-01-07T14:22:15;8.03;;;4.73;;
15693;SDS011;7947;48.834;9.132;2024-01-07T14:25:20;7.83;;;5.10;;
15693;SDS011;7947;48.834;9.132;2024-01-07T14:28:23;8.47;;;4.97;;
15693;SDS011;7947;48.834;9.132;2024-01-07T14:31:26;6.93;;;4.53;;
15693;SDS011;7947;48.834;9.132;2024-01-07T14:34:29;9.57;;;4.87;;
15693;SDS011;7947;48.834;9.132;2024-01-07T14:37:32;7.40;;;4.37;;
15693;SDS011;7947;48.834;9.132;2024-01-07T14:40:36;6.67;;;4.30;;
15693;SDS011;7947;48.834;9.132;2024-01-07T14:43:39;9.17;;;5.13;;
15693;SDS011;7947;48.834;9.132;2024-01-07T14:46:42;7.77;;;4.80;;
15693;SDS011;7947;48.834;9.132;2024-01-07T14:49:45;8.37;;;5.37;;
15693;SDS011;7947;48.834;9.132;2024-01-07T14:52:48;6.33;;;4.30;;
15693;SDS011;7947;48.834;9.132;2024-01-07T14:55:52;9.03;;;4.97;;
15693;SDS011;7947;48.834;9.132;2024-01-07T14:58:55;9.27;;;4.97;;
15693;SDS011;7947;48.834;9.132;2024-01-07T15:01:58;8.17;;;5.37;;
15693;SDS011;7947;48.834;9.132;2024-01-07T15:05:01;8.37;;;5.13;;
15693;SDS011;7947;48.834;9.132;2024-01-07T15:08:05;6.83;;;4.73;;
15693;SDS011;7947;48.834;9.132;2024-01-07T15:11:09;8.07;;;4.83;;
15693;SDS011;7947;48.834;9.132;2024-01-07T15:14:12;7.10;;;4.73;;
15693;SDS011;7947;48.834;9.132;2024-01-07T15:17:15;9.07;;;4.90;;
15693;SDS011;7947;48.834;9.132;2024-01-07T15:20:19;6.23;;;4.80;;
15693;SDS011;7947;48.834;9.132;2024-01-07T15:23:22;5.43;;;3.80;;
15693;SDS011;7947;48.834;9.132;2024-01-07T15:26:26;9.13;;;4.83;;
15693;SDS011;7947;48.834;9.132;2024-01-07T15:29:29;5.40;;;4.30;;
15693;SDS011;7947;48.834;9.132;2024-01-07T15:32:32;6.53;;;4.30;;
15693;SDS011;7947;48.834;9.132;2024-01-07T15:35:35;6.37;;;4.30;;
15693;SDS011;7947;48.834;9.132;2024-01-07T15:38:38;6.33;;;4.40;;
15693;SDS011;7947;48.834;9.132;2024-01-07T15:41:42;8.90;;;4.67;;
15693;SDS011;7947;48.834;9.132;2024-01-07T15:44:45;6.93;;;4.00;;
15693;SDS011;7947;48.834;9.132;2024-01-07T15:47:47;7.93;;;5.00;;
15693;SDS011;7947;48.834;9.132;2024-01-07T15:50:50;6.87;;;4.17;;
15693;SDS011;7947;48.834;9.132;2024-01-07T15:53:53;6.10;;;4.00;;
15693;SDS011;7947;48.834;9.132;2024-01-07T15:56:57;6.53;;;4.47;;
15693;SDS011;7947;48.834;9.132;2024-01-07T16:00:00;7.47;;;4.50;;
15693;SDS011;7947;48.834;9.132;2024-01-07T16:03:04;5.93;;;4.60;;
15693;SDS011;7947;48.834;9.132;2024-01-07T16:06:07;7.13;;;4.13;;
15693;SDS011;7947;48.834;9.132;2024-01-07T16:09:11;6.00;;;3.87;;
15693;SDS011;7947;48.834;9.132;2024-01-07T16:12:16;6.60;;;4.33;;
15693;SDS011;7947;48.834;9.132;2024-01-07T16:15:19;6.73;;;4.03;;
15693;SDS011;7947;48.834;9.132;2024-01-07T16:18:22;7.67;;;4.90;;
15693;SDS011;7947;48.834;9.132;2024-01-07T16:21:24;8.17;;;4.43;;
15693;SDS011;7947;48.834;9.132;2024-01-07T16:24:27;9.50;;;4.77;;
15693;SDS011;7947;48.834;9.132;2024-01-07T16:27:42;9.17;;;5.20;;
15693;SDS011;7947;48.834;9.132;2024-01-07T16:30:45;8.00;;;4.43;;
15693;SDS011;7947;48.834;9.132;2024-01-07T16:33:51;5.70;;;4.23;;
15693;SDS011;7947;48.834;9.132;2024-01-07T16:36:54;7.27;;;4.13;;
15693;SDS011;7947;48.834;9.132;2024-01-07T16:39:57;6.03;;;4.13;;
15693;SDS011;7947;48.834;9.132;2024-01-07T16:43:02;8.47;;;4.53;;
15693;SDS011;7947;48.834;9.132;2024-01-07T16:46:05;7.73;;;4.23;;
15693;SDS011;7947;48.834;9.132;2024-01-07T16:49:08;11.30;;;5.53;;
15693;SDS011;7947;48.834;9.132;2024-01-07T16:52:31;5.17;;;3.30;;
15693;SDS011;7947;48.834;9.132;2024-01-07T16:55:34;6.80;;;4.10;;
15693;SDS011;7947;48.834;9.132;2024-01-07T16:58:38;6.80;;;3.90;;
15693;SDS011;7947;48.834;9.132;2024-01-07T17:01:41;6.67;;;3.77;;
15693;SDS011;7947;48.834;9.132;2024-01-07T17:04:45;6.73;;;4.10;;
15693;SDS011;7947;48.834;9.132;2024-01-07T17:07:48;7.07;;;4.63;;
15693;SDS011;7947;48.834;9.132;2024-01-07T17:10:51;6.97;;;3.93;;
15693;SDS011;7947;48.834;9.132;2024-01-07T17:13:55;5.63;;;3.70;;
15693;SDS011;7947;48.834;9.132;2024-01-07T17:16:58;6.23;;;3.73;;
15693;SDS011;7947;48.834;9.132;2024-01-07T17:20:02;8.40;;;4.13;;
15693;SDS011;7947;48.834;9.132;2024-01-07T17:23:05;7.37;;;3.60;;
15693;SDS011;7947;48.834;9.132;2024-01-07T17:26:08;6.50;;;3.37;;
15693;SDS011;7947;48.834;9.132;2024-01-07T17:29:12;5.87;;;4.13;;
15693;SDS011;7947;48.834;9.132;2024-01-07T17:32:15;5.90;;;3.80;;
15693;SDS011;7947;48.834;9.132;2024-01-07T17:35:23;9.30;;;3.83;;
15693;SDS011;7947;48.834;9.132;2024-01-07T17:38:26;6.17;;;3.77;;
15693;SDS011;7947;48.834;9.132;2024-01-07T17:41:29;7.60;;;3.73;;
15693;SDS011;7947;48.834;9.132;2024-01-07T17:44:33;8.60;;;3.80;;
15693;SDS011;7947;48.834;9.132;2024-01-07T17:47:38;5.33;;;3.30;;
15693;SDS011;7947;48.834;9.132;2024-01-07T17:50:41;4.87;;;3.50;;
15693;SDS011;7947;48.834;9.132;2024-01-07T17:53:49;6.77;;;3.57;;
15693;SDS011;7947;48.834;9.132;2024-01-07T17:56:52;5.20;;;3.17;;
15693;SDS011;7947;48.834;9.132;2024-01-07T17:59:56;4.07;;;3.17;;
15693;SDS011;7947;48.834;9.132;2024-01-07T18:03:01;6.07;;;3.20;;
15693;SDS011;7947;48.834;9.132;2024-01-07T18:06:07;4.77;;;3.17;;
15693;SDS011;7947;48.834;9.132;2024-01-07T18:09:10;6.67;;;3.47;;
15693;SDS011;7947;48.834;9.132;2024-01-07T18:12:13;4.90;;;3.63;;
15693;SDS011;7947;48.834;9.132;2024-01-07T18:15:18;7.50;;;3.90;;
15693;SDS011;7947;48.834;9.132;2024-01-07T18:18:21;5.93;;;3.30;;
15693;SDS011;7947;48.834;9.132;2024-01-07T18:21:25;5.23;;;3.20;;
15693;SDS011;7947;48.834;9.132;2024-01-07T18:24:31;5.63;;;3.50;;
15693;SDS011;7947;48.834;9.132;2024-01-07T18:27:35;6.73;;;4.00;;
15693;SDS011;7947;48.834;9.132;2024-01-07T18:30:40;5.40;;;3.20;;
15693;SDS011;7947;48.834;9.132;2024-01-07T18:33:43;5.93;;;4.10;;
15693;SDS011;7947;48.834;9.132;2024-01-07T18:36:47;4.57;;;3.27;;
15693;SDS011;7947;48.834;9.132;2024-01-07T18:39:51;6.30;;;3.87;;
15693;SDS011;7947;48.834;9.132;2024-01-07T18:42:54;6.17;;;3.67;;